Time;durP1;ratioP1;P1;durP2;ratioP2;P2;SDS_P1;SDS_P2;PMS_P1;PMS_P2;Temp;Humidity;BMP_temperature;BMP_pressure;BME280_temperature;BME280_humidity;BME280_pressure;Samples;Min_cycle;Max_cycle;Signal;HPM_P1;HPM_P2
2021/06/08 00:00:59;;;;;;;8.93;4.93;;;512.80;1792.00;;;;;;5113692;28;20015;-73
2021/06/08 00:03:25;;;;;;;8.13;5.75;;;512.80;1792.00;;;;;;5113306;28;20039;-73
2021/06/08 00:05:50;;;;;;;8.93;4.95;;;512.80;1792.00;;;;;;5113569;28;20119;-74
2021/06/08 00:08:16;;;;;;;11.80;4.90;;;512.80;1792.00;;;;;;5112844;28;20023;-73
2021/06/08 00:10:42;;;;;;;7.30;4.78;;;512.80;1792.00;;;;;;5113172;28;20023;-74
2021/06/08 00:13:08;;;;;;;11.43;5.07;;;512.80;1792.00;;;;;;5113547;28;20440;-73
2021/06/08 00:15:34;;;;;;;7.05;4.60;;;512.70;1792.00;;;;;;5113056;28;20058;-73
2021/06/08 00:17:59;;;;;;;12.82;5.38;;;512.60;1817.60;;;;;;5113309;28;20465;-73
2021/06/08 00:20:25;;;;;;;12.98;5.72;;;512.50;1817.60;;;;;;5113234;28;20035;-74
2021/06/08 00:22:51;;;;;;;10.18;4.75;;;512.30;1843.20;;;;;;5113308;28;20019;-74
2021/06/08 00:25:16;;;;;;;7.07;5.10;;;487.30;1868.80;;;;;;5112744;28;20019;-73
2021/06/08 00:27:42;;;;;;;10.18;5.25;;;512.00;1843.20;;;;;;5113430;28;20492;-73
2021/06/08 00:30:09;;;;;;;10.45;5.82;;;512.10;1868.80;;;;;;5112054;28;20024;-73
2021/06/08 00:32:34;;;;;;;11.82;5.88;;;512.10;1843.20;;;;;;5113213;28;20066;-73
2021/06/08 00:35:00;;;;;;;13.05;5.32;;;512.00;1868.80;;;;;;5112969;28;20040;-73
2021/06/08 00:37:26;;;;;;;7.55;4.93;;;512.10;1843.20;;;;;;5094536;28;20124;-73
2021/06/08 00:39:55;;;;;;;8.82;5.85;;;487.30;1894.40;;;;;;5112978;28;20020;-73
2021/06/08 00:42:29;;;;;;;12.02;6.50;;;512.10;1843.20;;;;;;5110182;28;20027;-73
2021/06/08 00:44:55;;;;;;;12.40;5.05;;;512.10;1843.20;;;;;;5113094;28;20020;-73
2021/06/08 00:47:21;;;;;;;13.27;5.88;;;512.00;1868.80;;;;;;5112587;28;20516;-73
2021/06/08 00:49:46;;;;;;;9.93;5.68;;;512.00;1868.80;;;;;;5112742;28;20016;-73
2021/06/08 00:52:12;;;;;;;13.02;5.22;;;487.30;1868.80;;;;;;5112455;28;20032;-73
2021/06/08 00:54:38;;;;;;;11.40;5.40;;;487.30;1868.80;;;;;;5112692;28;20015;-73
2021/06/08 00:57:04;;;;;;;10.93;5.55;;;487.30;1868.80;;;;;;5112235;28;20051;-74
2021/06/08 00:59:30;;;;;;;7.88;5.88;;;487.30;1868.80;;;;;;5112549;28;20011;-73
2021/06/08 01:01:56;;;;;;;11.95;6.10;;;487.20;1868.80;;;;;;5093746;28;20392;-73
2021/06/08 01:04:21;;;;;;;8.00;5.25;;;487.30;1868.80;;;;;;5112338;28;20026;-74
2021/06/08 01:06:48;;;;;;;10.63;5.47;;;487.30;1868.80;;;;;;5112220;28;20028;-74
2021/06/08 01:09:15;;;;;;;15.20;6.13;;;487.30;1868.80;;;;;;5112077;28;20047;-73
2021/06/08 01:11:41;;;;;;;12.10;5.47;;;487.30;1868.80;;;;;;5112396;28;20027;-74
2021/06/08 01:14:07;;;;;;;16.08;5.75;;;487.30;1868.80;;;;;;5094058;28;20020;-73
2021/06/08 01:16:33;;;;;;;9.45;5.35;;;512.00;1843.20;;;;;;5112515;28;20087;-74
2021/06/08 01:18:59;;;;;;;14.85;6.47;;;487.30;1843.20;;;;;;5112129;28;20015;-73
2021/06/08 01:21:27;;;;;;;9.30;6.07;;;512.00;1843.20;;;;;;5112246;28;20465;-74
2021/06/08 01:23:53;;;;;;;12.77;5.85;;;512.00;1843.20;;;;;;5111771;28;20020;-74
2021/06/08 01:26:23;;;;;;;9.75;5.63;;;512.00;1843.20;;;;;;5111699;28;20035;-74
2021/06/08 01:28:49;;;;;;;11.20;5.65;;;487.30;1868.80;;;;;;5112159;28;20015;-73
2021/06/08 01:31:20;;;;;;;11.27;5.65;;;487.00;1894.40;;;;;;5111923;28;20077;-73
2021/06/08 01:33:46;;;;;;;11.18;5.50;;;487.00;1894.40;;;;;;5109851;28;20459;-73
2021/06/08 01:36:15;;;;;;;9.68;5.93;;;487.10;1894.40;;;;;;5111854;28;20048;-73
2021/06/08 01:38:42;;;;;;;14.63;5.90;;;486.90;1920.00;;;;;;5111849;28;20016;-74
2021/06/08 01:41:11;;;;;;;14.35;6.22;;;486.90;1920.00;;;;;;5111586;28;20111;-74
2021/06/08 01:43:38;;;;;;;15.15;6.00;;;487.00;1920.00;;;;;;5111750;28;20026;-73
2021/06/08 01:46:04;;;;;;;10.10;6.10;;;486.90;1920.00;;;;;;5109291;28;20035;-73
2021/06/08 01:48:30;;;;;;;9.55;5.68;;;486.90;1920.00;;;;;;5111891;28;20012;-73
2021/06/08 01:51:03;;;;;;;10.40;7.22;;;486.70;1945.60;;;;;;5111877;28;20346;-74
2021/06/08 01:53:52;;;;;;;8.70;5.90;;;486.60;1971.20;;;;;;5109488;28;20470;-73
2021/06/08 01:56:21;;;;;;;8.82;6.15;;;486.60;1971.20;;;;;;5110562;28;20047;-73
2021/06/08 01:58:58;;;;;;;11.35;5.93;;;486.60;1971.20;;;;;;5109563;28;20798;-73
2021/06/08 02:01:43;;;;;;;12.73;6.60;;;486.60;1971.20;;;;;;5109023;28;20038;-73
2021/06/08 02:04:43;;;;;;;16.50;6.18;;;486.50;1971.20;;;;;;5109038;28;20026;-74
2021/06/08 02:07:31;;;;;;;10.35;6.07;;;486.50;1971.20;;;;;;5105357;28;20132;-73
2021/06/08 02:10:03;;;;;;;7.18;5.82;;;486.40;1971.20;;;;;;5029195;28;20498;-74
2021/06/08 02:12:29;;;;;;;9.52;5.80;;;486.40;1996.80;;;;;;5028853;28;20041;-74
2021/06/08 02:15:11;;;;;;;7.65;6.05;;;461.50;1996.80;;;;;;5029337;28;20479;-74
2021/06/08 02:17:45;;;;;;;11.75;6.45;;;486.40;1996.80;;;;;;5016344;28;20021;-74
2021/06/08 02:20:17;;;;;;;9.85;5.50;;;461.70;1996.80;;;;;;5029034;28;20468;-73
2021/06/08 02:22:46;;;;;;;10.20;5.85;;;461.60;1996.80;;;;;;5028900;28;20013;-74
2021/06/08 02:25:16;;;;;;;8.85;5.90;;;461.50;2022.40;;;;;;5028499;28;20029;-73
2021/06/08 02:27:42;;;;;;;9.43;5.80;;;461.50;2048.00;;;;;;5028773;28;20116;-74
2021/06/08 02:30:09;;;;;;;10.00;5.57;;;461.50;2022.40;;;;;;5029233;28;20399;-74
2021/06/08 02:32:37;;;;;;;10.32;6.32;;;461.40;2048.00;;;;;;5028728;28;20032;-74
2021/06/08 02:35:04;;;;;;;9.63;5.95;;;461.20;2048.00;;;;;;5029189;28;20158;-73
2021/06/08 02:37:31;;;;;;;11.90;6.35;;;461.20;2048.00;;;;;;5028553;28;20029;-74
2021/06/08 02:39:57;;;;;;;11.40;6.20;;;461.20;2048.00;;;;;;5028989;28;20092;-74
2021/06/08 02:42:24;;;;;;;8.73;6.30;;;461.20;2073.60;;;;;;5028751;28;20036;-74
2021/06/08 02:44:52;;;;;;;8.90;6.03;;;461.10;2073.60;;;;;;5029198;28;20109;-73
2021/06/08 02:47:19;;;;;;;7.50;5.70;;;461.10;2073.60;;;;;;5081857;28;20051;-74
2021/06/08 02:49:47;;;;;;;13.43;6.68;;;461.00;2099.20;;;;;;5110428;28;20121;-73
2021/06/08 02:52:15;;;;;;;10.23;6.35;;;461.10;2099.20;;;;;;5111027;28;20031;-73
2021/06/08 02:54:42;;;;;;;10.68;6.03;;;460.80;2150.40;;;;;;5113385;28;20027;-74
2021/06/08 02:57:09;;;;;;;8.30;6.20;;;460.80;2150.40;;;;;;5114470;28;20481;-73
2021/06/08 02:59:37;;;;;;;12.50;7.07;;;460.80;2124.80;;;;;;5114974;28;20027;-74
2021/06/08 03:02:07;;;;;;;8.05;6.15;;;460.90;2124.80;;;;;;5114920;28;20020;-74
2021/06/08 03:04:51;;;;;;;15.63;7.15;;;435.90;2150.40;;;;;;5115074;28;20066;-73
2021/06/08 03:07:22;;;;;;;12.80;6.90;;;435.90;2176.00;;;;;;5114703;28;20059;-73
2021/06/08 03:10:13;;;;;;;10.10;6.57;;;436.10;2150.40;;;;;;5115161;28;20026;-73
2021/06/08 03:12:44;;;;;;;8.57;6.20;;;436.10;2124.80;;;;;;5115096;28;20016;-73
2021/06/08 03:15:10;;;;;;;9.85;6.63;;;460.80;2150.40;;;;;;5114436;28;20051;-73
2021/06/08 03:17:41;;;;;;;9.63;6.88;;;460.80;2124.80;;;;;;5114789;28;20024;-74
2021/06/08 03:20:13;;;;;;;9.55;6.00;;;460.90;2124.80;;;;;;5114687;28;20046;-74
2021/06/08 03:22:46;;;;;;;10.18;6.63;;;460.90;2124.80;;;;;;5100791;28;20473;-73
2021/06/08 03:25:15;;;;;;;14.95;7.18;;;461.00;2099.20;;;;;;5114365;28;20062;-73
2021/06/08 03:27:42;;;;;;;10.38;6.63;;;461.10;2099.20;;;;;;5114246;28;20030;-73
2021/06/08 03:30:10;;;;;;;10.00;7.38;;;461.10;2099.20;;;;;;5114594;28;20016;-73
2021/06/08 03:32:36;;;;;;;12.27;6.68;;;461.10;2099.20;;;;;;5114268;28;20480;-74
2021/06/08 03:35:06;;;;;;;9.23;7.10;;;461.20;2099.20;;;;;;5114484;28;20019;-73
2021/06/08 03:37:33;;;;;;;9.48;6.97;;;461.20;2099.20;;;;;;5114355;28;20063;-73
2021/06/08 03:39:59;;;;;;;10.93;7.53;;;461.20;2099.20;;;;;;5114362;28;20023;-73
2021/06/08 03:42:26;;;;;;;11.13;7.57;;;461.20;2073.60;;;;;;5114118;28;20481;-73
2021/06/08 03:44:52;;;;;;;9.23;6.85;;;461.20;2099.20;;;;;;5114071;28;20028;-73
2021/06/08 03:47:21;;;;;;;10.55;6.93;;;461.30;2099.20;;;;;;5114165;28;20122;-73
2021/06/08 03:49:47;;;;;;;12.07;6.68;;;461.30;2099.20;;;;;;5113914;28;20038;-73
2021/06/08 03:52:13;;;;;;;9.63;7.07;;;461.30;2099.20;;;;;;5114200;28;20477;-73
2021/06/08 03:54:40;;;;;;;13.40;6.82;;;461.20;2124.80;;;;;;5113520;28;20022;-73
2021/06/08 03:57:07;;;;;;;14.13;6.47;;;461.40;2099.20;;;;;;5113835;28;20501;-73
2021/06/08 03:59:37;;;;;;;12.30;7.43;;;461.30;2099.20;;;;;;5113929;28;20028;-74
2021/06/08 04:02:03;;;;;;;9.38;7.10;;;461.40;2099.20;;;;;;5113993;28;20120;-74
2021/06/08 04:04:31;;;;;;;12.77;6.68;;;461.40;2099.20;;;;;;5113942;28;20020;-73
2021/06/08 04:06:57;;;;;;;16.25;7.85;;;461.50;2099.20;;;;;;5113641;28;20024;-74
2021/06/08 04:09:23;;;;;;;13.05;8.88;;;461.50;2073.60;;;;;;5113894;28;20024;-73
2021/06/08 04:11:51;;;;;;;15.80;12.25;;;461.60;2073.60;;;;;;5113556;28;20377;-75
2021/06/08 04:14:17;;;;;;;15.50;11.48;;;461.70;2073.60;;;;;;5113742;28;20045;-73
2021/06/08 04:16:45;;;;;;;17.92;10.52;;;486.40;2073.60;;;;;;5113579;28;20030;-74
2021/06/08 04:19:14;;;;;;;13.00;9.75;;;486.40;2073.60;;;;;;5113669;28;20023;-74
2021/06/08 04:21:42;;;;;;;19.67;9.68;;;486.50;2048.00;;;;;;5095121;28;20043;-73
2021/06/08 04:24:09;;;;;;;15.25;9.80;;;486.50;2048.00;;;;;;5113209;28;20019;-74
2021/06/08 04:26:35;;;;;;;19.63;9.25;;;486.60;2048.00;;;;;;5113207;28;20396;-73
2021/06/08 04:29:01;;;;;;;15.18;8.82;;;486.70;2048.00;;;;;;5112936;28;20028;-74
2021/06/08 04:31:27;;;;;;;12.98;8.80;;;486.70;2048.00;;;;;;5113509;28;20023;-74
2021/06/08 04:33:53;;;;;;;13.75;9.02;;;486.60;2048.00;;;;;;5113012;28;20034;-73
2021/06/08 04:36:19;;;;;;;14.05;9.98;;;486.70;2022.40;;;;;;5113353;28;20030;-73
2021/06/08 04:38:45;;;;;;;12.65;9.20;;;486.70;2022.40;;;;;;5113042;28;20020;-74
2021/06/08 04:41:12;;;;;;;11.45;8.50;;;486.90;2022.40;;;;;;5112853;28;20046;-73
2021/06/08 04:43:40;;;;;;;10.80;8.30;;;487.00;2022.40;;;;;;5113015;28;20020;-73
2021/06/08 04:46:11;;;;;;;11.85;9.20;;;487.10;2022.40;;;;;;5112574;28;20413;-74
2021/06/08 04:48:37;;;;;;;13.43;9.07;;;487.10;1996.80;;;;;;5112884;28;20022;-73
2021/06/08 04:51:03;;;;;;;12.50;8.88;;;487.10;1996.80;;;;;;5112598;28;20024;-73
2021/06/08 04:53:28;;;;;;;13.90;9.00;;;487.30;1996.80;;;;;;5113070;28;20054;-73
2021/06/08 04:55:54;;;;;;;12.02;7.80;;;512.00;1996.80;;;;;;5112490;28;20079;-73
2021/06/08 04:58:21;;;;;;;11.43;8.57;;;512.00;1996.80;;;;;;5095782;28;20073;-73
2021/06/08 05:01:13;;;;;;;16.20;8.50;;;512.20;1996.80;;;;;;5091960;28;20023;-73
2021/06/08 05:03:45;;;;;;;14.00;7.93;;;512.20;1971.20;;;;;;5090564;28;20016;-73
2021/06/08 05:06:15;;;;;;;18.55;8.57;;;512.30;1971.20;;;;;;5074694;28;20030;-74
2021/06/08 05:08:49;;;;;;;9.38;7.03;;;512.30;1971.20;;;;;;5091583;28;20103;-73
2021/06/08 05:11:19;;;;;;;13.73;7.32;;;512.40;1971.20;;;;;;5092100;28;20103;-73
2021/06/08 05:13:50;;;;;;;13.50;7.40;;;512.30;1996.80;;;;;;5089086;28;20020;-74
2021/06/08 05:16:17;;;;;;;10.13;7.22;;;512.50;1971.20;;;;;;5091418;28;20449;-73
2021/06/08 05:18:46;;;;;;;8.93;6.50;;;512.70;1971.20;;;;;;5091829;28;20044;-73
2021/06/08 05:21:15;;;;;;;13.93;7.30;;;512.60;1971.20;;;;;;5091508;28;20048;-72
2021/06/08 05:23:41;;;;;;;10.50;7.10;;;512.80;1920.00;;;;;;5092023;28;20381;-74
2021/06/08 05:26:10;;;;;;;11.75;7.25;;;512.80;1920.00;;;;;;5091630;28;20047;-73
2021/06/08 05:28:39;;;;;;;11.15;7.15;;;512.90;1920.00;;;;;;5085278;28;20012;-73
2021/06/08 05:31:05;;;;;;;10.30;6.38;;;512.90;1945.60;;;;;;5091875;28;20012;-72
2021/06/08 05:33:32;;;;;;;8.40;6.03;;;537.60;1945.60;;;;;;5091514;28;20031;-72
2021/06/08 05:35:58;;;;;;;8.50;6.13;;;537.70;1945.60;;;;;;5091609;28;20019;-72
2021/06/08 05:38:35;;;;;;;8.18;5.72;;;537.70;1945.60;;;;;;5091707;28;20081;-73
2021/06/08 05:41:03;;;;;;;11.75;6.22;;;537.80;1945.60;;;;;;5091324;28;20055;-72
2021/06/08 05:43:29;;;;;;;14.32;7.55;;;537.80;1945.60;;;;;;5091164;28;20054;-72
2021/06/08 05:45:55;;;;;;;12.48;6.13;;;537.90;1894.40;;;;;;5091680;28;20081;-71
2021/06/08 05:48:24;;;;;;;10.85;6.32;;;538.10;1868.80;;;;;;5091829;28;20062;-71
2021/06/08 05:50:54;;;;;;;14.20;6.22;;;538.10;1894.40;;;;;;5091615;28;20094;-72
2021/06/08 05:53:20;;;;;;;12.75;6.32;;;538.10;1920.00;;;;;;5091455;28;20035;-72
2021/06/08 05:55:49;;;;;;;13.40;6.75;;;538.20;1868.80;;;;;;5093289;28;20429;-72
2021/06/08 05:58:15;;;;;;;16.40;5.80;;;538.20;1868.80;;;;;;5092147;28;20028;-72
2021/06/08 06:00:41;;;;;;;15.82;5.97;;;538.30;1894.40;;;;;;5091617;28;20119;-74
2021/06/08 06:03:08;;;;;;;13.32;5.60;;;538.50;1868.80;;;;;;5091461;28;20023;-73
2021/06/08 06:05:39;;;;;;;21.27;6.78;;;538.50;1894.40;;;;;;5091186;28;20107;-71
2021/06/08 06:08:05;;;;;;;12.90;6.20;;;563.30;1920.00;;;;;;5089525;28;20054;-72
2021/06/08 06:10:32;;;;;;;17.50;6.93;;;563.40;1894.40;;;;;;5090857;28;20544;-72
2021/06/08 06:12:59;;;;;;;13.70;6.78;;;563.40;1894.40;;;;;;5091621;28;20653;-73
2021/06/08 06:15:28;;;;;;;13.85;6.75;;;563.60;1894.40;;;;;;5091512;28;20012;-73
2021/06/08 06:17:54;;;;;;;11.65;5.90;;;563.60;1868.80;;;;;;5091249;28;20023;-73
2021/06/08 06:20:20;;;;;;;13.63;6.30;;;563.60;1894.40;;;;;;5091232;28;20107;-74
2021/06/08 06:22:47;;;;;;;10.82;5.55;;;563.70;1868.80;;;;;;5091407;28;20078;-74
2021/06/08 06:25:13;;;;;;;8.30;6.00;;;563.70;1894.40;;;;;;5091158;28;20028;-73
2021/06/08 06:27:41;;;;;;;10.88;6.28;;;563.90;1868.80;;;;;;5090931;28;20081;-73
2021/06/08 06:30:13;;;;;;;18.17;6.20;;;564.00;1894.40;;;;;;5095133;28;20016;-73
2021/06/08 06:32:39;;;;;;;11.77;5.32;;;564.10;1868.80;;;;;;5093802;28;20047;-73
2021/06/08 06:35:07;;;;;;;8.52;5.18;;;588.80;1817.60;;;;;;5095024;28;20782;-74
2021/06/08 06:37:35;;;;;;;13.20;5.40;;;589.00;1843.20;;;;;;5094932;28;20016;-73
2021/06/08 06:40:01;;;;;;;13.98;6.10;;;589.00;1843.20;;;;;;5094993;28;20428;-74
2021/06/08 06:42:41;;;;;;;7.22;5.25;;;589.10;1817.60;;;;;;5094941;28;20028;-73
2021/06/08 06:45:09;;;;;;;12.32;5.25;;;589.20;1843.20;;;;;;5095036;28;20024;-72
2021/06/08 06:47:37;;;;;;;6.88;5.05;;;589.30;1817.60;;;;;;5094580;28;20032;-73
2021/06/08 06:50:13;;;;;;;16.55;5.95;;;589.40;1817.60;;;;;;5095141;28;20012;-73
2021/06/08 06:52:40;;;;;;;6.60;4.97;;;589.60;1792.00;;;;;;5094474;28;20028;-73
2021/06/08 06:55:10;;;;;;;14.38;5.65;;;589.60;1740.80;;;;;;5094765;28;20028;-73
2021/06/08 06:57:36;;;;;;;8.40;4.55;;;589.70;1740.80;;;;;;5100742;28;20399;-73
2021/06/08 07:00:04;;;;;;;12.95;4.93;;;614.50;1766.40;;;;;;5094996;28;20417;-74
2021/06/08 07:02:31;;;;;;;6.15;4.78;;;614.60;1740.80;;;;;;5094755;28;20016;-74
2021/06/08 07:04:57;;;;;;;10.25;4.57;;;614.70;1689.60;;;;;;5094548;28;20051;-75
2021/06/08 07:07:23;;;;;;;8.35;4.97;;;614.80;1689.60;;;;;;5094806;28;20115;-74
2021/06/08 07:09:50;;;;;;;16.73;5.18;;;614.90;1689.60;;;;;;5094460;28;20016;-73
2021/06/08 07:12:22;;;;;;;16.20;5.28;;;614.80;1715.20;;;;;;5094581;28;20031;-73
2021/06/08 07:14:52;;;;;;;7.57;3.72;;;615.10;1612.80;;;;;;5094342;28;20024;-74
2021/06/08 07:17:20;;;;;;;7.30;4.53;;;615.20;1587.20;;;;;;5098760;28;20094;-73
2021/06/08 07:19:47;;;;;;;11.60;4.47;;;615.30;1612.80;;;;;;5103523;28;20024;-75
2021/06/08 07:22:14;;;;;;;5.68;3.58;;;640.00;1587.20;;;;;;5092598;28;20031;-73
2021/06/08 07:24:43;;;;;;;6.15;3.53;;;640.10;1587.20;;;;;;5093869;28;20016;-72
2021/06/08 07:27:13;;;;;;;10.52;4.65;;;640.30;1561.60;;;;;;5090458;28;20508;-73
2021/06/08 07:29:43;;;;;;;10.73;4.30;;;640.40;1510.40;;;;;;5093325;28;20020;-71
2021/06/08 07:32:20;;;;;;;9.63;4.25;;;640.50;1510.40;;;;;;5093751;28;20020;-71
2021/06/08 07:34:59;;;;;;;7.30;3.70;;;640.50;1484.80;;;;;;5091969;28;20057;-73
2021/06/08 07:37:28;;;;;;;11.73;3.58;;;640.70;1510.40;;;;;;5091729;28;20019;-72
2021/06/08 07:40:04;;;;;;;6.28;3.38;;;640.90;1510.40;;;;;;5092899;28;20031;-72
2021/06/08 07:42:38;;;;;;;11.52;3.60;;;665.60;1510.40;;;;;;5093752;28;20040;-72
2021/06/08 07:45:07;;;;;;;6.97;3.08;;;665.70;1510.40;;;;;;5091731;28;20032;-74
2021/06/08 07:47:34;;;;;;;6.15;3.53;;;665.90;1484.80;;;;;;5093057;28;20354;-75
2021/06/08 07:50:03;;;;;;;4.72;3.55;;;666.00;1433.60;;;;;;5090865;28;20016;-73
2021/06/08 07:52:30;;;;;;;4.85;3.20;;;666.00;1433.60;;;;;;5093179;28;20016;-74
2021/06/08 07:54:56;;;;;;;11.07;3.63;;;666.10;1408.00;;;;;;5092051;28;20020;-73
2021/06/08 07:57:23;;;;;;;8.73;3.42;;;666.20;1433.60;;;;;;5107775;28;20101;-72
2021/06/08 07:59:50;;;;;;;7.68;3.28;;;666.30;1408.00;;;;;;5113791;28;20018;-73
2021/06/08 08:02:24;;;;;;;3.75;2.75;;;666.40;1356.80;;;;;;5113233;28;20500;-73
2021/06/08 08:04:51;;;;;;;14.13;3.75;;;666.40;1408.00;;;;;;5110838;28;20031;-73
2021/06/08 08:07:22;;;;;;;11.02;3.15;;;691.20;1408.00;;;;;;5113030;28;20476;-73
2021/06/08 08:09:49;;;;;;;8.50;3.28;;;691.30;1382.40;;;;;;5113412;28;20121;-73
2021/06/08 08:12:16;;;;;;;9.45;3.33;;;691.30;1331.20;;;;;;5113022;28;20588;-73
2021/06/08 08:14:44;;;;;;;10.32;3.40;;;691.30;1356.80;;;;;;5094643;28;20417;-72
2021/06/08 08:17:11;;;;;;;8.52;3.50;;;691.30;1305.60;;;;;;5113026;28;20023;-72
2021/06/08 08:19:39;;;;;;;7.75;4.18;;;691.40;1331.20;;;;;;5112686;28;20046;-74
2021/06/08 08:22:05;;;;;;;9.13;4.00;;;691.40;1280.00;;;;;;5112759;28;20073;-74
2021/06/08 08:24:32;;;;;;;13.57;3.83;;;691.50;1331.20;;;;;;5113103;28;20388;-75
2021/06/08 08:26:57;;;;;;;10.90;3.28;;;691.70;1356.80;;;;;;5112250;28;20096;-74
2021/06/08 08:29:23;;;;;;;10.55;3.65;;;691.80;1331.20;;;;;;5113446;28;20435;-74
2021/06/08 08:31:50;;;;;;;6.95;3.55;;;691.80;1280.00;;;;;;5113051;28;20138;-74
2021/06/08 08:34:16;;;;;;;10.70;3.97;;;691.80;1280.00;;;;;;5113105;28;20020;-73
2021/06/08 08:36:42;;;;;;;5.97;3.10;;;691.90;1331.20;;;;;;5112312;28;20026;-73
2021/06/08 08:39:10;;;;;;;8.35;3.38;;;692.00;1254.40;;;;;;5112825;28;20461;-74
2021/06/08 08:41:36;;;;;;;6.15;3.35;;;691.90;1254.40;;;;;;5106840;28;20020;-74
2021/06/08 08:44:03;;;;;;;9.38;3.70;;;692.00;1228.80;;;;;;5108636;28;20007;-74
2021/06/08 08:46:29;;;;;;;8.25;3.20;;;692.00;1254.40;;;;;;5112675;28;20075;-75
2021/06/08 08:48:57;;;;;;;9.75;3.38;;;692.10;1228.80;;;;;;5112495;28;20021;-74
2021/06/08 08:51:26;;;;;;;4.10;3.28;;;692.10;1228.80;;;;;;5111826;28;20030;-74
2021/06/08 08:53:53;;;;;;;6.00;3.38;;;692.10;1228.80;;;;;;5112495;28;20007;-76
2021/06/08 08:56:24;;;;;;;10.63;4.25;;;692.10;1203.20;;;;;;5111880;28;20036;-74
2021/06/08 08:58:50;;;;;;;5.95;3.25;;;716.90;1254.40;;;;;;5110974;28;20057;-74
2021/06/08 09:01:16;;;;;;;8.52;3.25;;;717.00;1203.20;;;;;;5112245;28;20544;-74
2021/06/08 09:03:42;;;;;;;8.30;3.35;;;717.10;1254.40;;;;;;5093135;28;20097;-74
2021/06/08 09:06:11;;;;;;;7.53;3.13;;;717.10;1203.20;;;;;;5112215;28;20088;-75
2021/06/08 09:08:38;;;;;;;15.15;3.70;;;717.20;1177.60;;;;;;5112689;28;20073;-75
2021/06/08 09:11:06;;;;;;;9.45;3.40;;;717.40;1177.60;;;;;;5111829;28;20031;-74
2021/06/08 09:13:31;;;;;;;8.05;3.10;;;717.40;1203.20;;;;;;5100712;28;20020;-75
2021/06/08 09:15:57;;;;;;;6.20;3.47;;;717.50;1126.40;;;;;;5108218;28;20034;-74
2021/06/08 09:18:24;;;;;;;11.73;3.50;;;717.50;1152.00;;;;;;5112204;28;20020;-75
2021/06/08 09:20:52;;;;;;;6.82;3.03;;;717.50;1177.60;;;;;;5109559;28;20528;-74
2021/06/08 09:23:23;;;;;;;7.45;3.47;;;717.50;1177.60;;;;;;5093114;28;20033;-74
2021/06/08 09:25:52;;;;;;;7.13;3.20;;;717.70;1100.80;;;;;;5096554;28;20031;-74
2021/06/08 09:28:26;;;;;;;6.47;3.45;;;742.40;1126.40;;;;;;5093926;28;20369;-74
2021/06/08 09:31:21;;;;;;;10.05;3.35;;;742.40;1126.40;;;;;;5104170;28;20015;-73
2021/06/08 09:33:52;;;;;;;5.70;3.30;;;742.50;1126.40;;;;;;5091366;28;20047;-76
2021/06/08 09:36:20;;;;;;;8.40;3.15;;;742.50;1049.60;;;;;;5092255;28;20027;-75
2021/06/08 09:39:05;;;;;;;8.77;3.53;;;742.50;1075.20;;;;;;5104324;28;20027;-74
2021/06/08 09:41:44;;;;;;;8.63;3.42;;;742.40;1075.20;;;;;;5109964;28;20027;-74
2021/06/08 09:44:15;;;;;;;10.80;3.28;;;742.50;1049.60;;;;;;5111583;28;20442;-75
2021/06/08 09:46:56;;;;;;;16.55;3.55;;;742.80;1075.20;;;;;;5111988;28;20023;-74
2021/06/08 09:49:31;;;;;;;7.85;3.40;;;742.70;1075.20;;;;;;5111822;28;20020;-73
2021/06/08 09:51:59;;;;;;;5.35;3.28;;;742.80;1024.00;;;;;;5101321;28;20392;-74
2021/06/08 09:54:43;;;;;;;7.97;3.40;;;742.90;1049.60;;;;;;5111852;28;20393;-74
2021/06/08 09:57:27;;;;;;;10.52;3.05;;;743.00;1049.60;;;;;;5101491;28;20086;-73
2021/06/08 10:00:14;;;;;;;8.70;3.42;;;743.10;1075.20;;;;;;5111537;28;20066;-73
2021/06/08 10:02:45;;;;;;;9.45;3.30;;;743.00;1152.00;;;;;;5110889;28;20035;-75
2021/06/08 10:05:24;;;;;;;6.90;4.03;;;743.00;1075.20;;;;;;5115968;28;20058;-74
2021/06/08 10:07:52;;;;;;;7.47;3.85;;;743.30;1049.60;;;;;;5115926;28;20032;-75
2021/06/08 10:10:23;;;;;;;6.72;3.72;;;768.10;1075.20;;;;;;5116120;28;20465;-72
2021/06/08 10:12:58;;;;;;;5.47;3.40;;;768.10;1049.60;;;;;;5115792;28;20024;-74
2021/06/08 10:15:26;;;;;;;9.55;3.58;;;768.10;1100.80;;;;;;5115855;28;20388;-74
2021/06/08 10:18:00;;;;;;;9.02;3.55;;;768.20;998.40;;;;;;5115642;28;20034;-74
2021/06/08 10:20:29;;;;;;;11.02;4.05;;;743.10;1049.60;;;;;;5112987;28;20043;-74
2021/06/08 10:22:56;;;;;;;7.93;3.80;;;742.80;1126.40;;;;;;5115567;28;20468;-74
2021/06/08 10:25:22;;;;;;;8.68;4.15;;;742.80;1049.60;;;;;;5115452;28;20028;-74
2021/06/08 10:27:48;;;;;;;73.47;7.40;;;743.00;1075.20;;;;;;5115654;28;20028;-73
2021/06/08 10:30:15;;;;;;;48.10;5.63;;;743.10;1049.60;;;;;;5115514;28;20015;-74
2021/06/08 10:32:41;;;;;;;14.07;3.63;;;742.70;1024.00;;;;;;5115645;28;20046;-74
2021/06/08 10:35:08;;;;;;;17.65;3.85;;;743.00;1049.60;;;;;;5115556;28;20544;-73
2021/06/08 10:37:36;;;;;;;9.15;3.40;;;768.00;1049.60;;;;;;5115548;28;20024;-75
2021/06/08 10:40:04;;;;;;;7.30;3.80;;;768.10;998.40;;;;;;5115531;28;20028;-75
2021/06/08 10:42:30;;;;;;;4.63;2.67;;;768.40;921.60;;;;;;5114916;28;20354;-74
2021/06/08 10:45:03;;;;;;;8.48;3.13;;;743.30;921.60;;;;;;5114955;28;20039;-75
2021/06/08 10:47:53;;;;;;;6.00;3.63;;;768.00;947.20;;;;;;5114956;28;20073;-75
2021/06/08 10:50:26;;;;;;;6.88;3.63;;;743.00;972.80;;;;;;5113401;28;20030;-75
2021/06/08 10:52:56;;;;;;;6.00;2.90;;;743.30;972.80;;;;;;5112770;28;20103;-74
2021/06/08 10:55:37;;;;;;;5.63;3.22;;;768.10;921.60;;;;;;5114555;28;20027;-75
2021/06/08 10:58:04;;;;;;;5.90;3.15;;;768.20;947.20;;;;;;5113794;28;20066;-75
2021/06/08 11:00:36;;;;;;;4.15;3.00;;;768.40;896.00;;;;;;5114989;28;20094;-75
2021/06/08 11:03:03;;;;;;;5.00;2.55;;;768.70;870.40;;;;;;5114762;28;20077;-75
2021/06/08 11:05:56;;;;;;;6.30;3.22;;;768.90;819.20;;;;;;5096438;28;20024;-74
2021/06/08 11:09:01;;;;;;;4.55;3.20;;;793.60;896.00;;;;;;5094951;28;20431;-74
2021/06/08 11:11:46;;;;;;;8.10;2.97;;;793.70;844.80;;;;;;5114197;28;20012;-75
2021/06/08 11:17:07;;;;;;;3.92;2.80;;;768.60;870.40;;;;;;5113802;28;20038;-75
2021/06/08 11:19:43;;;;;;;7.13;2.97;;;768.50;870.40;;;;;;5114739;28;20094;-76
2021/06/08 11:22:10;;;;;;;6.05;3.13;;;768.90;896.00;;;;;;5114292;28;20415;-74
2021/06/08 11:24:37;;;;;;;8.13;3.03;;;768.90;870.40;;;;;;5114489;28;20063;-74
2021/06/08 11:27:04;;;;;;;5.43;3.25;;;793.70;870.40;;;;;;5114122;28;20028;-74
2021/06/08 11:29:47;;;;;;;12.63;4.10;;;793.70;844.80;;;;;;5114350;28;20027;-74
2021/06/08 11:32:28;;;;;;;7.43;3.42;;;793.90;870.40;;;;;;5114247;28;20409;-73
2021/06/08 11:35:22;;;;;;;13.60;3.60;;;794.00;870.40;;;;;;5111446;28;20028;-74
2021/06/08 11:38:00;;;;;;;5.43;2.88;;;794.00;921.60;;;;;;5113106;28;20011;-73
2021/06/08 11:40:35;;;;;;;11.75;3.50;;;794.00;947.20;;;;;;5114444;28;20529;-74
2021/06/08 11:43:11;;;;;;;12.60;3.45;;;793.70;921.60;;;;;;5113849;28;20047;-74
2021/06/08 11:45:42;;;;;;;9.50;4.00;;;793.90;947.20;;;;;;5114237;28;20031;-74
2021/06/08 11:48:30;;;;;;;8.55;3.22;;;793.90;921.60;;;;;;5111513;28;20496;-73
2021/06/08 11:50:56;;;;;;;8.65;3.17;;;768.60;896.00;;;;;;5113051;28;20110;-74
2021/06/08 11:53:22;;;;;;;4.30;2.95;;;768.40;896.00;;;;;;5113830;28;20023;-75
2021/06/08 11:56:12;;;;;;;10.70;3.45;;;768.70;870.40;;;;;;5113782;28;20027;-74
2021/06/08 11:58:39;;;;;;;7.57;3.20;;;768.80;896.00;;;;;;5112810;28;20431;-74
2021/06/08 12:01:07;;;;;;;6.30;3.25;;;768.90;896.00;;;;;;5112904;28;20468;-75
2021/06/08 12:03:36;;;;;;;10.52;4.13;;;793.80;921.60;;;;;;5110657;28;20499;-75
2021/06/08 12:06:04;;;;;;;15.10;3.70;;;793.70;870.40;;;;;;5112796;28;20026;-75
2021/06/08 12:08:35;;;;;;;7.88;3.50;;;793.70;896.00;;;;;;5112533;28;20020;-75
2021/06/08 12:11:13;;;;;;;8.38;3.20;;;793.70;896.00;;;;;;5110798;28;20142;-75
2021/06/08 12:13:42;;;;;;;10.40;3.63;;;793.70;921.60;;;;;;5111618;28;20019;-76
2021/06/08 12:16:11;;;;;;;6.45;3.42;;;793.70;896.00;;;;;;5113761;28;20032;-76
2021/06/08 12:18:38;;;;;;;3.25;2.65;;;793.70;896.00;;;;;;5112654;28;20020;-75
2021/06/08 12:21:13;;;;;;;5.97;3.13;;;793.70;947.20;;;;;;5113276;28;20022;-75
2021/06/08 12:23:39;;;;;;;;;;;793.60;896.00;;;;;;5112831;28;20019;-75
2021/06/08 12:26:11;;;;;;;5.75;3.30;;;768.90;921.60;;;;;;5111984;28;19916;-75
2021/06/08 12:28:37;;;;;;;4.68;3.75;;;768.90;921.60;;;;;;5109810;28;20447;-75